Time;durP1;ratioP1;P1;durP2;ratioP2;P2;SDS_P1;SDS_P2;PMS_P1;PMS_P2;Temp;Humidity;BMP_temperature;BMP_pressure;BME280_temperature;BME280_humidity;BME280_pressure;Samples;Min_cycle;Max_cycle;Signal;HPM_P1;HPM_P2
2023/01/24 00:01:25;;;;;;;27.02;16.52;;;2.40;99.90;;;;;;5071829;28;20024;-75
2023/01/24 00:03:51;;;;;;;26.88;16.50;;;2.40;99.90;;;;;;5070511;28;20055;-76
2023/01/24 00:06:16;;;;;;;28.23;17.10;;;2.40;99.90;;;;;;5071749;28;20043;-76
2023/01/24 00:08:42;;;;;;;26.83;16.63;;;2.40;99.90;;;;;;5070444;28;20017;-76
2023/01/24 00:11:11;;;;;;;24.80;16.52;;;2.40;99.90;;;;;;5071692;28;20493;-75
2023/01/24 00:13:37;;;;;;;29.98;16.58;;;2.50;99.90;;;;;;5070591;28;20500;-76
2023/01/24 00:16:03;;;;;;;24.48;16.02;;;2.40;99.90;;;;;;5072007;28;20016;-75
2023/01/24 00:18:29;;;;;;;25.40;15.73;;;2.50;99.90;;;;;;5071280;28;20028;-74
2023/01/24 00:21:16;;;;;;;29.10;16.98;;;2.40;99.90;;;;;;5085361;28;20103;-76
2023/01/24 00:23:47;;;;;;;23.50;15.80;;;2.40;99.90;;;;;;5081726;28;20028;-76
2023/01/24 00:26:14;;;;;;;26.27;15.57;;;2.30;99.90;;;;;;5084285;28;20485;-76
2023/01/24 00:28:40;;;;;;;24.65;15.48;;;2.30;99.90;;;;;;5072713;28;20032;-76
2023/01/24 00:31:05;;;;;;;25.83;15.63;;;2.30;99.90;;;;;;5077497;28;20032;-76
2023/01/24 00:33:32;;;;;;;24.27;15.55;;;2.30;99.90;;;;;;5069186;28;20037;-73
2023/01/24 00:35:58;;;;;;;25.50;15.70;;;2.30;99.90;;;;;;5077400;28;20422;-76
2023/01/24 00:38:24;;;;;;;24.80;15.07;;;2.30;99.90;;;;;;5074251;28;20051;-76
2023/01/24 00:40:50;;;;;;;24.10;15.18;;;2.30;99.90;;;;;;5072668;28;20021;-76
2023/01/24 00:43:16;;;;;;;26.33;16.10;;;2.30;99.90;;;;;;5073319;28;20028;-75
2023/01/24 00:45:43;;;;;;;26.48;15.38;;;2.30;99.90;;;;;;5071305;28;20481;-76
2023/01/24 00:48:10;;;;;;;26.27;15.35;;;2.30;99.90;;;;;;5067428;28;20112;-76
2023/01/24 00:50:36;;;;;;;24.48;14.30;;;2.30;99.90;;;;;;5073604;28;20081;-76
2023/01/24 00:53:02;;;;;;;27.58;16.38;;;2.40;99.90;;;;;;5072091;28;20400;-76
2023/01/24 00:55:28;;;;;;;24.70;14.85;;;2.40;99.90;;;;;;5072504;28;20033;-74
2023/01/24 00:57:53;;;;;;;23.90;15.05;;;2.30;99.90;;;;;;5080748;28;20049;-76
2023/01/24 01:00:19;;;;;;;22.17;14.52;;;2.40;99.90;;;;;;5079591;28;20480;-75
2023/01/24 01:02:46;;;;;;;25.88;14.68;;;2.40;99.90;;;;;;5080059;28;20032;-76
2023/01/24 01:05:11;;;;;;;25.88;15.00;;;2.50;99.90;;;;;;5061090;28;20036;-76
2023/01/24 01:07:37;;;;;;;25.13;15.98;;;2.40;99.90;;;;;;5070665;28;20047;-76
2023/01/24 01:10:03;;;;;;;26.73;15.57;;;2.40;99.90;;;;;;5069958;28;20105;-76
2023/01/24 01:12:29;;;;;;;25.10;15.45;;;2.30;99.90;;;;;;5083969;28;20384;-74
2023/01/24 01:14:54;;;;;;;25.30;15.10;;;2.20;99.90;;;;;;5073219;28;20024;-76
2023/01/24 01:17:20;;;;;;;25.17;14.40;;;2.30;99.90;;;;;;5063327;28;20031;-75
2023/01/24 01:19:46;;;;;;;24.48;15.57;;;2.30;99.90;;;;;;5071427;28;20398;-75
2023/01/24 01:22:11;;;;;;;24.27;15.60;;;2.30;99.90;;;;;;5068553;28;20112;-75
2023/01/24 01:24:37;;;;;;;26.35;16.73;;;2.30;99.90;;;;;;5072747;28;20385;-75
2023/01/24 01:27:03;;;;;;;26.15;15.85;;;2.30;99.90;;;;;;5106435;28;20156;-75
2023/01/24 01:29:30;;;;;;;25.48;15.20;;;2.30;99.90;;;;;;5090540;28;20102;-73
2023/01/24 01:31:56;;;;;;;27.23;15.88;;;2.30;99.90;;;;;;5091113;28;20453;-75
2023/01/24 01:34:21;;;;;;;26.52;16.10;;;2.30;99.90;;;;;;5091705;28;20032;-75
2023/01/24 01:36:47;;;;;;;27.90;16.13;;;2.30;99.90;;;;;;5098280;28;20034;-75
2023/01/24 01:39:12;;;;;;;25.58;15.75;;;2.30;99.90;;;;;;5092115;28;20111;-75
2023/01/24 01:41:38;;;;;;;28.73;17.20;;;2.30;99.90;;;;;;5093444;28;20435;-74
2023/01/24 01:44:43;;;;;;;26.58;16.42;;;2.40;99.90;;;;;;5090594;28;20104;-74
2023/01/24 01:47:25;;;;;;;25.90;15.88;;;2.30;99.90;;;;;;5095878;28;20388;-75
2023/01/24 01:49:54;;;;;;;26.95;16.27;;;2.30;99.90;;;;;;5101262;28;20031;-76
2023/01/24 01:52:22;;;;;;;25.70;16.13;;;2.20;99.90;;;;;;5100718;28;20028;-75
2023/01/24 01:54:48;;;;;;;31.77;17.55;;;2.10;99.90;;;;;;5094588;28;20028;-75
2023/01/24 01:57:17;;;;;;;24.58;16.40;;;2.10;99.90;;;;;;5098608;28;20111;-75
2023/01/24 01:59:52;;;;;;;27.13;15.68;;;2.10;99.90;;;;;;5087163;28;20395;-75
2023/01/24 02:02:20;;;;;;;28.42;16.67;;;2.30;99.90;;;;;;5096768;28;20503;-75
2023/01/24 02:04:51;;;;;;;24.60;15.23;;;2.40;99.90;;;;;;5090222;28;20063;-75
2023/01/24 02:07:34;;;;;;;24.30;16.23;;;2.30;99.90;;;;;;5089215;28;20039;-75
2023/01/24 02:10:00;;;;;;;29.52;16.65;;;2.30;99.90;;;;;;5097802;28;20020;-75
2023/01/24 02:12:36;;;;;;;26.00;16.55;;;2.30;99.90;;;;;;5100079;28;20028;-75
2023/01/24 02:18:03;;;;;;;25.30;15.93;;;2.20;99.90;;;;;;5098329;28;20549;-76
2023/01/24 02:20:43;;;;;;;27.35;16.48;;;2.10;99.90;;;;;;5096387;28;20389;-73
2023/01/24 02:23:43;;;;;;;26.20;16.48;;;2.10;99.90;;;;;;5100318;28;20039;-76
2023/01/24 02:26:14;;;;;;;28.70;16.08;;;2.00;99.90;;;;;;5089530;28;20052;-76
2023/01/24 02:28:45;;;;;;;27.65;16.38;;;2.00;99.90;;;;;;5092087;28;20086;-75
2023/01/24 02:31:11;;;;;;;28.88;17.00;;;2.00;99.90;;;;;;5095282;28;20039;-76
2023/01/24 02:33:36;;;;;;;29.58;17.90;;;2.10;99.90;;;;;;5094167;28;20032;-75
2023/01/24 02:36:26;;;;;;;25.88;16.33;;;2.10;99.90;;;;;;5100247;28;20020;-75
2023/01/24 02:39:00;;;;;;;31.75;17.70;;;2.10;99.90;;;;;;5089205;28;20024;-75
2023/01/24 02:41:32;;;;;;;25.20;15.27;;;2.30;99.90;;;;;;5098830;28;20024;-74
2023/01/24 02:44:03;;;;;;;26.75;16.98;;;2.30;99.90;;;;;;5092781;28;20129;-75
2023/01/24 02:46:36;;;;;;;30.20;16.35;;;2.30;99.90;;;;;;5094655;28;20032;-73
2023/01/24 02:49:01;;;;;;;29.40;17.60;;;2.30;99.90;;;;;;5098289;28;20031;-75
2023/01/24 02:54:11;;;;;;;26.73;16.75;;;2.30;99.90;;;;;;5095495;28;20509;-75
2023/01/24 02:59:21;;;;;;;27.67;16.33;;;2.40;99.90;;;;;;5104319;28;20069;-75
2023/01/24 03:01:46;;;;;;;29.48;15.95;;;2.30;99.90;;;;;;5092452;28;20587;-74
2023/01/24 03:04:13;;;;;;;27.55;16.83;;;2.30;99.90;;;;;;5100222;28;20027;-75
2023/01/24 03:06:38;;;;;;;26.75;16.90;;;2.30;99.90;;;;;;5077201;28;20032;-74
2023/01/24 03:09:18;;;;;;;27.17;16.10;;;2.30;99.90;;;;;;5101678;28;20457;-75
2023/01/24 03:11:48;;;;;;;27.98;16.02;;;2.20;99.90;;;;;;5088066;28;20454;-75
2023/01/24 03:36:07;;;;;;;27.48;15.80;;;2.40;99.90;;;;;;5096993;28;20039;-74
2023/01/24 03:41:17;;;;;;;26.55;14.63;;;2.40;99.90;;;;;;5094560;28;20038;-75
2023/01/24 03:43:43;;;;;;;27.63;15.80;;;2.30;99.90;;;;;;5092071;28;20443;-75
2023/01/24 03:46:09;;;;;;;27.30;15.75;;;2.30;99.90;;;;;;5107078;28;20027;-75
2023/01/24 03:48:36;;;;;;;27.95;15.98;;;2.30;99.90;;;;;;5076844;28;20100;-74
2023/01/24 03:53:46;;;;;;;26.05;15.70;;;2.30;99.90;;;;;;5087766;28;20062;-75
2023/01/24 03:56:12;;;;;;;27.70;16.20;;;2.30;99.90;;;;;;5094535;28;20032;-75
2023/01/24 03:58:37;;;;;;;30.55;16.50;;;2.20;99.90;;;;;;5081700;28;20055;-75
2023/01/24 04:01:03;;;;;;;28.95;15.82;;;2.20;99.90;;;;;;5085300;28;20453;-75
2023/01/24 04:03:28;;;;;;;30.40;16.58;;;2.20;99.90;;;;;;5093783;28;20042;-73
2023/01/24 04:05:54;;;;;;;29.88;16.63;;;2.20;99.90;;;;;;5096924;28;20031;-74
2023/01/24 04:08:20;;;;;;;24.67;15.68;;;2.20;99.90;;;;;;5094858;28;20472;-74
2023/01/24 04:10:45;;;;;;;28.67;16.45;;;2.20;99.90;;;;;;5102320;28;20031;-75
2023/01/24 04:13:11;;;;;;;27.15;15.60;;;2.20;99.90;;;;;;5098994;28;20038;-74
2023/01/24 04:15:37;;;;;;;25.52;16.10;;;2.30;99.90;;;;;;5091428;28;20579;-74
2023/01/24 04:18:04;;;;;;;28.95;17.63;;;2.30;99.90;;;;;;5085168;28;20111;-76
2023/01/24 04:20:33;;;;;;;31.15;16.95;;;2.20;99.90;;;;;;5102878;28;20424;-73
2023/01/24 04:23:05;;;;;;;32.10;17.45;;;2.20;99.90;;;;;;5088441;28;20166;-74
2023/01/24 04:25:32;;;;;;;28.83;16.88;;;2.20;99.90;;;;;;5098727;28;20055;-74
2023/01/24 04:27:57;;;;;;;31.58;18.00;;;2.30;99.90;;;;;;5093415;28;20471;-74
2023/01/24 04:30:23;;;;;;;30.35;17.80;;;2.30;99.90;;;;;;5093065;28;20036;-75
2023/01/24 04:32:49;;;;;;;27.15;16.92;;;2.30;99.90;;;;;;5091848;28;20020;-75
2023/01/24 04:35:21;;;;;;;28.48;17.92;;;2.30;99.90;;;;;;5092203;28;20032;-74
2023/01/24 04:37:47;;;;;;;32.35;18.23;;;2.20;99.90;;;;;;5085095;28;20030;-75
2023/01/24 04:40:14;;;;;;;30.90;17.77;;;2.20;99.90;;;;;;5091863;28;20024;-74
2023/01/24 04:42:40;;;;;;;29.88;17.55;;;2.20;99.90;;;;;;5100577;28;20479;-75
2023/01/24 04:45:07;;;;;;;30.08;16.58;;;2.20;99.90;;;;;;5092383;28;20039;-74
2023/01/24 04:47:32;;;;;;;31.42;17.75;;;2.20;99.90;;;;;;5101108;28;20068;-75
2023/01/24 04:49:58;;;;;;;32.65;17.63;;;2.20;99.90;;;;;;5091891;28;20056;-76
2023/01/24 04:52:24;;;;;;;31.42;17.45;;;2.20;99.90;;;;;;5107511;28;20111;-76
2023/01/24 04:54:51;;;;;;;29.25;17.00;;;2.30;99.90;;;;;;5086854;28;20735;-75
2023/01/24 04:57:17;;;;;;;28.52;16.45;;;2.30;99.90;;;;;;5098804;28;20468;-75
2023/01/24 04:59:43;;;;;;;30.35;17.48;;;2.30;99.90;;;;;;5089212;28;20385;-75
2023/01/24 05:02:09;;;;;;;30.48;18.33;;;2.20;99.90;;;;;;5099070;28;20028;-75
2023/01/24 05:04:34;;;;;;;29.13;17.27;;;2.20;99.90;;;;;;5092709;28;20042;-74
2023/01/24 05:07:00;;;;;;;30.75;17.70;;;2.30;99.90;;;;;;5092958;28;20418;-76
2023/01/24 05:09:26;;;;;;;26.08;16.45;;;2.20;99.90;;;;;;5098788;28;20035;-74
2023/01/24 05:11:52;;;;;;;29.40;17.17;;;2.20;99.90;;;;;;5091761;28;20384;-76
2023/01/24 05:14:17;;;;;;;30.02;17.13;;;2.20;99.90;;;;;;5098687;28;20134;-76
2023/01/24 05:16:43;;;;;;;29.98;16.77;;;2.20;99.90;;;;;;5099923;28;20031;-76
2023/01/24 05:19:08;;;;;;;31.17;17.10;;;2.10;99.90;;;;;;5091775;28;20111;-76
2023/01/24 05:21:34;;;;;;;30.48;18.10;;;2.10;99.90;;;;;;5091729;28;20611;-76
2023/01/24 05:24:00;;;;;;;28.58;16.75;;;2.10;99.90;;;;;;5097515;28;20026;-76
2023/01/24 05:26:26;;;;;;;28.52;16.40;;;2.20;99.90;;;;;;5074135;28;20068;-76
2023/01/24 05:28:53;;;;;;;30.60;16.92;;;2.10;99.90;;;;;;5074772;28;20028;-76
2023/01/24 05:31:19;;;;;;;31.13;17.15;;;2.20;99.90;;;;;;5072265;28;20107;-75
2023/01/24 05:33:45;;;;;;;28.75;15.82;;;2.20;99.90;;;;;;5052198;28;20393;-76
2023/01/24 05:36:14;;;;;;;30.20;17.23;;;2.20;99.90;;;;;;5066611;28;20039;-75
2023/01/24 05:38:40;;;;;;;29.05;17.05;;;2.20;99.90;;;;;;5077068;28;20021;-76
2023/01/24 05:41:08;;;;;;;29.98;16.70;;;2.30;99.90;;;;;;5090120;28;20058;-76
2023/01/24 05:43:35;;;;;;;31.70;17.67;;;2.30;99.90;;;;;;5073200;28;20034;-76
2023/01/24 05:46:12;;;;;;;27.52;15.90;;;2.20;99.90;;;;;;5079123;28;20039;-76
2023/01/24 05:48:38;;;;;;;31.00;17.00;;;2.20;99.90;;;;;;5081785;28;20092;-75
2023/01/24 05:51:09;;;;;;;31.80;18.02;;;2.20;99.90;;;;;;5072680;28;20040;-75
2023/01/24 05:53:37;;;;;;;27.55;16.75;;;2.10;99.90;;;;;;5069675;28;20037;-76
2023/01/24 05:56:06;;;;;;;28.25;17.05;;;2.10;99.90;;;;;;5069850;28;20032;-76
2023/01/24 05:58:35;;;;;;;29.42;16.88;;;2.20;99.90;;;;;;5070650;28;20016;-74
2023/01/24 06:01:01;;;;;;;29.83;17.52;;;2.10;99.90;;;;;;5071119;28;20090;-75
2023/01/24 06:03:26;;;;;;;30.98;17.60;;;2.10;99.90;;;;;;5070603;28;20379;-74
2023/01/24 06:05:54;;;;;;;29.42;17.33;;;2.20;99.90;;;;;;5069173;28;20081;-75
2023/01/24 06:08:20;;;;;;;28.58;17.13;;;2.20;99.90;;;;;;5075822;28;20036;-75
2023/01/24 06:10:46;;;;;;;29.60;18.08;;;2.20;99.90;;;;;;5081603;28;20123;-78
2023/01/24 06:13:13;;;;;;;33.33;18.25;;;2.20;99.90;;;;;;5081706;28;20040;-74
2023/01/24 06:15:39;;;;;;;33.05;19.23;;;2.20;99.90;;;;;;5078083;28;20041;-76
2023/01/24 06:18:06;;;;;;;33.20;18.35;;;2.20;99.90;;;;;;5077654;28;20030;-77
2023/01/24 06:20:32;;;;;;;30.85;18.30;;;2.20;99.90;;;;;;5077274;28;20583;-76
2023/01/24 06:23:04;;;;;;;34.53;18.83;;;2.20;99.90;;;;;;5081554;28;20035;-77
2023/01/24 06:25:30;;;;;;;33.05;17.23;;;2.10;99.90;;;;;;5077198;28;20068;-75
2023/01/24 06:27:56;;;;;;;32.15;17.33;;;2.10;99.90;;;;;;5075897;28;20495;-78
2023/01/24 06:30:22;;;;;;;35.10;19.40;;;2.10;99.90;;;;;;5081416;28;20032;-80
2023/01/24 06:33:14;;;;;;;32.30;18.70;;;2.10;99.90;;;;;;5080620;28;20020;-78
2023/01/24 06:36:01;;;;;;;36.95;19.02;;;2.10;99.90;;;;;;5072915;28;20016;-78
2023/01/24 06:38:31;;;;;;;32.08;18.30;;;2.20;99.90;;;;;;5060061;28;20503;-75
2023/01/24 06:40:59;;;;;;;29.40;18.02;;;2.30;99.90;;;;;;5059279;28;20039;-75
2023/01/24 06:43:25;;;;;;;33.35;17.15;;;2.30;99.90;;;;;;5069572;28;20044;-80
2023/01/24 06:45:51;;;;;;;36.55;17.77;;;2.30;99.90;;;;;;5057767;28;20039;-73
2023/01/24 06:48:16;;;;;;;30.98;17.65;;;2.30;99.90;;;;;;5061025;28;20107;-78
2023/01/24 06:50:42;;;;;;;30.63;17.20;;;2.30;99.90;;;;;;5065773;28;20094;-79
2023/01/24 06:53:09;;;;;;;31.70;17.77;;;2.30;99.90;;;;;;5077509;28;20040;-81
2023/01/24 06:55:35;;;;;;;35.90;19.15;;;2.30;99.90;;;;;;5076262;28;20036;-78
2023/01/24 06:58:04;;;;;;;37.83;20.60;;;2.30;99.90;;;;;;5086156;28;20378;-78
2023/01/24 07:00:30;;;;;;;36.53;20.20;;;2.40;99.90;;;;;;5083866;28;20074;-76
2023/01/24 07:03:06;;;;;;;39.85;21.50;;;2.40;99.90;;;;;;5071549;28;20108;-77
2023/01/24 07:05:32;;;;;;;38.88;21.05;;;2.30;99.90;;;;;;5080199;28;20028;-76
2023/01/24 07:07:58;;;;;;;38.25;20.98;;;2.30;99.90;;;;;;5085055;28;20036;-76
2023/01/24 07:10:24;;;;;;;36.80;19.65;;;2.30;99.90;;;;;;5075768;28;20033;-77
2023/01/24 07:12:50;;;;;;;37.25;21.38;;;2.40;99.90;;;;;;5073100;28;20572;-75
2023/01/24 07:15:16;;;;;;;35.28;19.73;;;2.40;99.90;;;;;;5073106;28;20103;-76
2023/01/24 07:17:42;;;;;;;42.05;22.13;;;2.30;99.90;;;;;;5071532;28;20462;-76
2023/01/24 07:20:09;;;;;;;40.15;21.33;;;2.30;99.90;;;;;;5072200;28;20024;-76
2023/01/24 07:22:37;;;;;;;35.85;20.08;;;2.30;99.90;;;;;;5075528;28;20052;-75
2023/01/24 07:25:14;;;;;;;39.60;20.90;;;2.30;99.90;;;;;;5054897;28;20083;-77
2023/01/24 07:27:41;;;;;;;37.40;21.10;;;2.30;99.90;;;;;;5074023;28;20024;-74
2023/01/24 07:30:07;;;;;;;37.88;20.40;;;2.30;99.90;;;;;;5073774;28;20032;-75
2023/01/24 07:32:33;;;;;;;38.78;20.55;;;2.30;99.90;;;;;;5074885;28;20021;-75
2023/01/24 07:34:58;;;;;;;35.40;19.08;;;2.30;99.90;;;;;;5076389;28;20035;-75
2023/01/24 07:37:24;;;;;;;38.83;20.60;;;2.30;99.90;;;;;;5072737;28;20021;-76
2023/01/24 07:39:49;;;;;;;36.65;19.65;;;2.30;99.90;;;;;;5072310;28;20339;-75
2023/01/24 07:42:15;;;;;;;38.97;20.08;;;2.20;99.90;;;;;;5073702;28;20043;-75
2023/01/24 07:44:40;;;;;;;37.15;20.23;;;2.10;99.90;;;;;;5072722;28;20059;-76
2023/01/24 07:47:06;;;;;;;37.38;21.02;;;2.10;99.90;;;;;;5070740;28;20040;-76
2023/01/24 07:49:32;;;;;;;36.95;20.38;;;2.10;99.90;;;;;;5072037;28;20060;-76
2023/01/24 07:51:58;;;;;;;40.42;19.80;;;2.20;99.90;;;;;;5074423;28;20103;-77
2023/01/24 07:54:23;;;;;;;36.05;19.88;;;2.20;99.90;;;;;;5075094;28;20075;-76
2023/01/24 07:56:49;;;;;;;35.67;19.42;;;2.20;99.90;;;;;;5079063;28;20032;-76
2023/01/24 07:59:14;;;;;;;33.47;19.05;;;2.30;99.90;;;;;;5073452;28;20024;-76
2023/01/24 08:01:40;;;;;;;31.80;18.15;;;2.20;99.90;;;;;;5075230;28;20505;-78
2023/01/24 08:04:06;;;;;;;32.75;18.30;;;2.30;99.90;;;;;;5072009;28;20037;-75
2023/01/24 08:06:31;;;;;;;32.13;18.00;;;2.30;99.90;;;;;;5076747;28;20055;-75
2023/01/24 08:08:57;;;;;;;32.53;17.88;;;2.30;99.90;;;;;;5077464;28;20032;-76
2023/01/24 08:11:23;;;;;;;32.92;18.92;;;2.30;99.90;;;;;;5069897;28;20036;-75
2023/01/24 08:13:49;;;;;;;34.92;19.17;;;2.30;99.90;;;;;;5082850;28;20586;-75
2023/01/24 08:16:15;;;;;;;32.08;18.13;;;2.30;99.90;;;;;;5076840;28;20024;-75
2023/01/24 08:18:41;;;;;;;33.55;18.15;;;2.40;99.90;;;;;;5073539;28;20031;-74
2023/01/24 08:21:07;;;;;;;34.08;18.10;;;2.40;99.90;;;;;;5073248;28;20086;-75
2023/01/24 08:23:33;;;;;;;34.92;17.77;;;2.40;99.90;;;;;;5076743;28;20044;-73
2023/01/24 08:26:00;;;;;;;36.95;18.92;;;2.30;99.90;;;;;;5078600;28;20075;-75
2023/01/24 08:28:26;;;;;;;36.55;18.67;;;2.40;99.90;;;;;;5073239;28;20032;-75
2023/01/24 08:30:51;;;;;;;33.63;17.77;;;2.40;99.90;;;;;;5072699;28;20107;-75
2023/01/24 08:33:18;;;;;;;31.88;18.17;;;2.40;99.90;;;;;;5074195;28;20044;-74
2023/01/24 08:35:47;;;;;;;31.48;17.88;;;2.40;99.90;;;;;;5077858;28;20118;-74
2023/01/24 08:38:14;;;;;;;35.33;18.70;;;2.50;99.90;;;;;;5069070;28;20032;-74
2023/01/24 08:40:41;;;;;;;35.00;17.92;;;2.50;99.90;;;;;;5076134;28;20037;-74
2023/01/24 08:43:07;;;;;;;34.35;17.98;;;2.50;99.90;;;;;;5075555;28;20068;-74
2023/01/24 08:45:32;;;;;;;32.15;18.00;;;2.50;99.90;;;;;;5069699;28;20032;-74
2023/01/24 08:47:58;;;;;;;34.33;18.55;;;2.50;99.90;;;;;;5069903;28;20029;-74
2023/01/24 08:50:24;;;;;;;33.10;18.08;;;2.50;99.90;;;;;;5072313;28;20028;-75
2023/01/24 08:52:55;;;;;;;32.38;16.70;;;2.60;99.90;;;;;;5082146;28;20836;-75
2023/01/24 08:55:21;;;;;;;31.77;17.23;;;2.60;99.90;;;;;;5074577;28;20037;-75
2023/01/24 08:57:46;;;;;;;31.13;17.35;;;2.70;99.90;;;;;;5074879;28;20093;-75
2023/01/24 09:00:12;;;;;;;30.73;17.23;;;2.70;99.90;;;;;;5071397;28;20032;-75
2023/01/24 09:02:38;;;;;;;31.70;16.90;;;2.70;99.90;;;;;;5067940;28;20036;-75
2023/01/24 09:05:08;;;;;;;31.55;16.65;;;2.70;99.90;;;;;;5072972;28;20032;-75
2023/01/24 09:07:36;;;;;;;32.78;16.40;;;2.70;99.90;;;;;;5077843;28;20028;-75
2023/01/24 09:10:04;;;;;;;34.28;17.17;;;2.70;99.90;;;;;;5068060;28;20025;-75
2023/01/24 09:12:31;;;;;;;30.65;17.77;;;2.80;99.90;;;;;;5072008;28;20426;-73
2023/01/24 09:14:57;;;;;;;29.15;16.55;;;2.80;99.90;;;;;;5076088;28;20173;-75
2023/01/24 09:17:23;;;;;;;34.55;17.80;;;2.80;99.90;;;;;;5074628;28;20473;-75
2023/01/24 09:19:49;;;;;;;29.73;17.45;;;2.90;99.90;;;;;;5060962;28;20044;-75
2023/01/24 09:22:15;;;;;;;32.33;17.40;;;2.90;99.90;;;;;;5071402;28;20024;-75
2023/01/24 09:24:40;;;;;;;32.90;16.90;;;3.00;99.90;;;;;;5073071;28;20054;-75
2023/01/24 09:27:06;;;;;;;32.40;18.25;;;3.00;99.90;;;;;;5091919;28;20032;-75
2023/01/24 09:29:31;;;;;;;31.58;16.23;;;2.90;99.90;;;;;;5095500;28;20051;-74
2023/01/24 09:31:57;;;;;;;30.20;17.42;;;3.00;99.90;;;;;;5096479;28;20532;-75
2023/01/24 09:34:23;;;;;;;28.23;14.98;;;2.90;99.90;;;;;;5093797;28;20043;-75
2023/01/24 09:36:49;;;;;;;26.58;15.85;;;2.90;99.90;;;;;;5086846;28;20619;-74
2023/01/24 09:39:15;;;;;;;28.60;15.45;;;2.90;99.90;;;;;;5097694;28;20037;-74
2023/01/24 09:41:59;;;;;;;28.05;16.95;;;3.00;99.90;;;;;;5090686;28;20043;-74
2023/01/24 09:44:35;;;;;;;27.13;15.95;;;3.10;99.90;;;;;;5094760;28;20040;-73
2023/01/24 09:47:12;;;;;;;29.73;15.73;;;3.10;99.90;;;;;;5088706;28;20098;-74
2023/01/24 09:49:55;;;;;;;26.48;14.55;;;3.00;99.90;;;;;;5096203;28;20476;-74
2023/01/24 09:52:33;;;;;;;26.60;14.52;;;3.10;99.90;;;;;;5097711;28;20028;-74
2023/01/24 09:55:11;;;;;;;29.58;15.90;;;3.10;99.90;;;;;;5088863;28;20035;-74
2023/01/24 09:57:45;;;;;;;30.52;14.75;;;3.10;99.90;;;;;;5084614;28;20138;-75
2023/01/24 10:00:26;;;;;;;28.58;15.35;;;3.10;99.90;;;;;;5093948;28;20028;-75
2023/01/24 10:02:56;;;;;;;27.77;15.02;;;3.10;99.90;;;;;;5095131;28;20028;-75
2023/01/24 10:05:53;;;;;;;26.13;14.18;;;3.10;99.90;;;;;;5090618;28;20074;-76
2023/01/24 10:08:44;;;;;;;25.33;15.10;;;3.10;99.90;;;;;;5075733;28;20515;-75
2023/01/24 10:11:20;;;;;;;25.92;13.98;;;3.20;99.90;;;;;;5092167;28;20089;-75
2023/01/24 10:14:05;;;;;;;22.85;13.90;;;3.30;99.90;;;;;;5089845;28;20036;-75
2023/01/24 10:16:45;;;;;;;24.48;14.38;;;3.20;99.90;;;;;;5099079;28;20020;-73
2023/01/24 10:19:35;;;;;;;21.38;13.05;;;3.20;99.90;;;;;;5087324;28;20028;-75
2023/01/24 10:22:33;;;;;;;25.45;13.50;;;3.20;99.90;;;;;;5092189;28;20107;-75
2023/01/24 10:25:24;;;;;;;22.40;13.00;;;3.20;99.90;;;;;;5093364;28;20044;-75
2023/01/24 10:27:55;;;;;;;23.58;11.48;;;3.20;99.90;;;;;;5087061;28;20020;-75
2023/01/24 10:30:39;;;;;;;24.50;12.75;;;3.20;99.90;;;;;;5107660;28;20016;-75
2023/01/24 10:33:15;;;;;;;20.27;12.13;;;3.30;99.90;;;;;;5095887;28;20047;-76
2023/01/24 10:35:57;;;;;;;25.15;13.50;;;3.30;99.90;;;;;;5096601;28;20036;-79
2023/01/24 10:38:25;;;;;;;22.23;12.20;;;3.30;99.90;;;;;;5101738;28;20493;-75
2023/01/24 10:40:56;;;;;;;21.20;12.77;;;3.30;99.90;;;;;;5096222;28;20020;-74
2023/01/24 10:43:29;;;;;;;21.73;12.15;;;3.40;99.90;;;;;;5094838;28;20039;-76
2023/01/24 10:45:54;;;;;;;21.65;12.77;;;3.40;99.90;;;;;;5092062;28;20028;-75
2023/01/24 10:48:38;;;;;;;25.58;12.73;;;3.40;99.90;;;;;;5094074;28;20530;-75
2023/01/24 10:51:30;;;;;;;20.38;11.85;;;3.40;99.90;;;;;;5095047;28;20551;-76
2023/01/24 10:54:01;;;;;;;23.95;13.20;;;3.40;99.90;;;;;;5088052;28;20056;-75
2023/01/24 10:56:27;;;;;;;20.15;11.95;;;3.40;99.90;;;;;;5098010;28;20054;-74
2023/01/24 10:59:00;;;;;;;22.23;11.80;;;3.50;99.90;;;;;;5095698;28;20024;-76
2023/01/24 11:01:36;;;;;;;19.02;11.73;;;3.50;99.90;;;;;;5094436;28;20107;-75
2023/01/24 11:04:20;;;;;;;22.52;12.98;;;3.60;99.90;;;;;;5097405;28;20027;-75
2023/01/24 11:06:48;;;;;;;21.52;12.65;;;3.60;99.90;;;;;;5095276;28;20038;-72
2023/01/24 11:09:19;;;;;;;20.45;12.15;;;3.70;99.90;;;;;;5096294;28;20024;-74
2023/01/24 11:11:50;;;;;;;27.98;11.25;;;3.80;99.90;;;;;;5097476;28;20024;-74
2023/01/24 11:14:23;;;;;;;;;;;3.80;99.90;;;;;;5106172;28;20590;-75
2023/01/24 11:16:52;;;;;;;19.20;11.57;;;3.80;99.90;;;;;;5102246;28;19964;-76
2023/01/24 11:19:34;;;;;;;18.70;11.13;;;3.80;99.90;;;;;;5090714;28;20384;-76
2023/01/24 11:22:33;;;;;;;16.70;10.30;;;3.90;99.90;;;;;;5096249;28;20028;-76
2023/01/24 11:25:02;;;;;;;18.20;10.52;;;3.90;99.90;;;;;;5085704;28;20128;-76
2023/01/24 11:27:28;;;;;;;23.58;12.15;;;3.90;99.90;;;;;;5096150;28;20474;-75
2023/01/24 11:30:12;;;;;;;17.52;10.68;;;3.90;99.90;;;;;;5103375;28;20116;-76
2023/01/24 11:32:43;;;;;;;18.33;10.93;;;4.00;99.90;;;;;;5085993;28;20028;-75
2023/01/24 11:35:19;;;;;;;18.30;10.35;;;4.00;99.90;;;;;;5095915;28;20088;-76
2023/01/24 11:38:02;;;;;;;17.38;10.10;;;4.00;99.90;;;;;;5093296;28;20425;-76
2023/01/24 11:40:47;;;;;;;18.45;10.27;;;4.10;99.90;;;;;;5091336;28;20036;-74
2023/01/24 11:43:37;;;;;;;17.77;10.77;;;4.00;99.90;;;;;;5093864;28;20032;-76
2023/01/24 11:46:42;;;;;;;19.00;10.25;;;4.00;99.90;;;;;;5095297;28;20048;-76
2023/01/24 11:49:46;;;;;;;19.70;11.82;;;4.00;99.90;;;;;;5078802;28;20123;-76
2023/01/24 11:52:58;;;;;;;23.20;12.15;;;4.00;99.90;;;;;;5089771;28;20051;-76
2023/01/24 11:55:26;;;;;;;17.60;10.73;;;4.00;99.90;;;;;;5094012;28;20088;-75
2023/01/24 11:58:14;;;;;;;20.23;10.43;;;4.10;99.90;;;;;;5092231;28;20149;-76
2023/01/24 12:00:48;;;;;;;21.85;11.38;;;4.00;99.90;;;;;;5100547;28;20052;-75
2023/01/24 12:03:58;;;;;;;20.45;11.50;;;4.10;99.90;;;;;;5115271;28;20036;-78
2023/01/24 12:06:33;;;;;;;21.27;12.38;;;4.10;99.90;;;;;;5093452;28;20028;-76
2023/01/24 12:09:18;;;;;;;19.15;11.55;;;4.00;99.90;;;;;;5084992;28;20119;-75
2023/01/24 12:11:51;;;;;;;22.13;11.45;;;4.00;99.90;;;;;;5091874;28;20469;-78
2023/01/24 12:14:35;;;;;;;20.52;12.18;;;4.00;99.90;;;;;;5100597;28;20035;-76
2023/01/24 12:17:15;;;;;;;21.55;12.43;;;4.10;99.90;;;;;;5108265;28;20479;-77
2023/01/24 12:19:53;;;;;;;22.13;11.57;;;4.20;99.90;;;;;;5088605;28;20028;-76
2023/01/24 12:22:27;;;;;;;18.25;10.93;;;4.20;99.90;;;;;;5094751;28;20036;-77
2023/01/24 12:25:10;;;;;;;22.02;11.75;;;4.10;99.90;;;;;;5089966;27;20132;-76
2023/01/24 12:27:37;;;;;;;19.52;11.38;;;4.10;99.90;;;;;;5075791;28;20097;-77
2023/01/24 12:30:13;;;;;;;18.70;11.90;;;4.10;99.90;;;;;;5079351;28;20020;-77
2023/01/24 12:32:48;;;;;;;20.42;12.07;;;4.20;99.90;;;;;;5071610;28;20025;-76
2023/01/24 12:35:32;;;;;;;20.08;11.77;;;4.20;99.90;;;;;;5072536;28;20462;-77
2023/01/24 12:38:03;;;;;;;20.83;12.40;;;4.10;99.90;;;;;;5080391;28;20069;-76
2023/01/24 12:40:53;;;;;;;21.48;12.30;;;4.10;99.90;;;;;;5072764;28;20438;-74
2023/01/24 12:43:40;;;;;;;21.02;11.77;;;4.10;99.90;;;;;;5065775;28;20481;-77
2023/01/24 12:46:16;;;;;;;19.38;11.13;;;4.00;99.90;;;;;;5077971;28;20032;-76
2023/01/24 12:48:50;;;;;;;17.67;10.30;;;3.90;99.90;;;;;;5066516;28;20051;-77
2023/01/24 12:51:39;;;;;;;20.52;12.68;;;3.90;99.90;;;;;;5071420;28;20090;-77
2023/01/24 12:54:14;;;;;;;22.90;12.45;;;3.80;99.90;;;;;;5059812;28;20044;-77
2023/01/24 12:56:52;;;;;;;21.73;10.82;;;3.90;99.90;;;;;;5073164;28;20072;-75
2023/01/24 12:59:28;;;;;;;16.67;10.18;;;3.80;99.90;;;;;;5077901;28;20043;-75
2023/01/24 13:02:21;;;;;;;19.40;10.82;;;3.90;99.90;;;;;;5070939;28;20028;-76
2023/01/24 13:05:25;;;;;;;17.10;10.27;;;3.80;99.90;;;;;;5069739;28;20094;-77
2023/01/24 13:08:00;;;;;;;21.75;11.20;;;3.80;99.90;;;;;;5060072;28;20705;-76
2023/01/24 13:10:44;;;;;;;18.00;10.65;;;3.80;99.90;;;;;;5073128;28;20025;-77
2023/01/24 13:13:21;;;;;;;21.23;10.55;;;3.80;99.90;;;;;;5073467;28;20020;-76
2023/01/24 13:16:26;;;;;;;17.52;10.90;;;3.80;99.90;;;;;;5077387;28;20085;-76
2023/01/24 13:19:18;;;;;;;21.88;11.60;;;3.70;99.90;;;;;;5051741;28;20032;-76
2023/01/24 13:21:52;;;;;;;21.08;11.60;;;3.60;99.90;;;;;;5074140;28;20024;-76
2023/01/24 13:24:27;;;;;;;22.38;11.23;;;3.60;99.90;;;;;;5076552;28;20043;-75
2023/01/24 13:27:00;;;;;;;20.67;11.25;;;3.60;99.90;;;;;;5070944;28;20024;-76
2023/01/24 13:30:04;;;;;;;17.00;11.05;;;3.50;99.90;;;;;;5070648;28;20029;-76
2023/01/24 13:32:38;;;;;;;18.83;11.50;;;3.50;99.90;;;;;;5024451;28;20507;-75
2023/01/24 13:35:18;;;;;;;20.98;10.93;;;3.50;99.90;;;;;;5064066;28;20449;-76